Time;durP1;ratioP1;P1;durP2;ratioP2;P2;SDS_P1;SDS_P2;PMS_P1;PMS_P2;Temp;Humidity;BMP_temperature;BMP_pressure;BME280_temperature;BME280_humidity;BME280_pressure;Samples;Min_cycle;Max_cycle;Signal;HPM_P1;HPM_P2
2022/03/15 00:00:00;;;;;;;12.23;9.70;;;;;;;6.62;100.00;101739.88;5051510;28;20171;-74
2022/03/15 00:02:26;;;;;;;12.87;9.77;;;;;;;6.70;100.00;101749.47;5051903;28;20228;-74
2022/03/15 00:04:53;;;;;;;15.77;11.87;;;;;;;6.68;100.00;101755.16;5051700;28;20195;-74
2022/03/15 00:07:18;;;;;;;13.87;10.37;;;;;;;6.46;100.00;101744.28;5051604;28;20558;-74
2022/03/15 00:09:43;;;;;;;13.23;7.53;;;;;;;6.24;100.00;101751.59;5052080;28;20473;-74
2022/03/15 00:12:10;;;;;;;10.47;8.40;;;;;;;6.35;100.00;101749.81;5051660;28;20175;-74
2022/03/15 00:14:37;;;;;;;13.00;9.67;;;;;;;6.26;100.00;101754.88;5051544;28;20500;-74
2022/03/15 00:17:05;;;;;;;11.47;10.27;;;;;;;6.06;100.00;101760.81;5051697;28;20171;-73
2022/03/15 00:19:31;;;;;;;12.37;5.77;;;;;;;6.04;100.00;101759.44;5051562;28;20646;-74
2022/03/15 00:21:56;;;;;;;15.37;10.87;;;;;;;6.11;100.00;101768.22;5051851;28;20171;-74
2022/03/15 00:24:22;;;;;;;5.03;3.27;;;;;;;6.15;100.00;101769.38;5051575;28;20183;-74
2022/03/15 00:26:48;;;;;;;11.57;7.33;;;;;;;6.35;100.00;101766.94;5051189;28;20163;-74
2022/03/15 00:29:16;;;;;;;14.37;10.60;;;;;;;6.34;100.00;101764.47;5051156;28;20202;-74
2022/03/15 00:31:44;;;;;;;13.60;12.03;;;;;;;6.39;100.00;101770.81;5051316;28;20163;-75
2022/03/15 00:34:10;;;;;;;9.77;8.70;;;;;;;6.40;100.00;101767.03;5051230;28;20654;-74
2022/03/15 00:36:37;;;;;;;13.27;8.13;;;;;;;6.45;100.00;101769.78;5050447;28;20500;-74
2022/03/15 00:39:03;;;;;;;16.07;10.10;;;;;;;6.45;100.00;101780.66;5050847;28;20622;-74
2022/03/15 00:41:29;;;;;;;8.87;7.53;;;;;;;6.38;100.00;101781.91;5049949;28;20646;-74
2022/03/15 00:43:54;;;;;;;11.33;7.60;;;;;;;6.36;100.00;101782.16;5048340;28;20187;-74
2022/03/15 00:46:19;;;;;;;13.87;12.23;;;;;;;6.37;100.00;101788.41;5051057;28;20353;-74
2022/03/15 00:48:45;;;;;;;15.43;9.90;;;;;;;6.40;100.00;101783.31;5050396;28;20203;-74
2022/03/15 00:51:10;;;;;;;15.30;7.93;;;;;;;6.34;100.00;101783.47;5051138;28;20174;-75
2022/03/15 00:53:35;;;;;;;13.73;8.87;;;;;;;6.34;100.00;101797.03;5051067;28;20553;-74
2022/03/15 00:56:01;;;;;;;13.20;10.83;;;;;;;6.31;100.00;101795.66;5050904;28;20175;-74
2022/03/15 00:58:26;;;;;;;11.10;8.10;;;;;;;6.24;100.00;101793.13;5050704;28;20178;-74
2022/03/15 01:00:52;;;;;;;9.80;6.27;;;;;;;6.33;100.00;101798.13;5050391;28;20178;-74
2022/03/15 01:03:17;;;;;;;15.90;12.80;;;;;;;6.49;100.00;101798.06;5050526;28;20274;-73
2022/03/15 01:05:42;;;;;;;22.77;12.60;;;;;;;6.50;100.00;101804.31;5050785;28;20197;-74
2022/03/15 01:08:08;;;;;;;15.13;11.27;;;;;;;6.49;100.00;101805.41;5050462;28;20207;-74
2022/03/15 01:10:34;;;;;;;11.03;9.33;;;;;;;6.36;100.00;101801.13;5050679;28;20232;-74
2022/03/15 01:13:00;;;;;;;18.83;12.60;;;;;;;6.42;100.00;101815.63;5050703;28;20619;-74
2022/03/15 01:15:25;;;;;;;13.90;11.80;;;;;;;6.38;100.00;101809.88;5050910;28;20171;-74
2022/03/15 01:17:51;;;;;;;20.60;12.60;;;;;;;6.42;100.00;101804.78;5050381;28;20258;-74
2022/03/15 01:20:17;;;;;;;13.03;10.97;;;;;;;6.38;100.00;101795.50;5050737;28;20506;-74
2022/03/15 01:22:42;;;;;;;13.90;11.37;;;;;;;6.23;100.00;101798.81;5050611;28;20309;-74
2022/03/15 01:25:08;;;;;;;16.30;13.40;;;;;;;6.08;100.00;101790.44;5050343;28;20174;-74
2022/03/15 01:27:34;;;;;;;17.20;12.67;;;;;;;5.83;100.00;101783.50;5050174;28;20356;-74
2022/03/15 01:30:00;;;;;;;18.47;12.20;;;;;;;5.60;100.00;101791.78;5050544;28;20239;-74
2022/03/15 01:32:25;;;;;;;14.00;12.47;;;;;;;5.56;100.00;101790.63;5050576;28;20247;-74
2022/03/15 01:34:51;;;;;;;18.37;12.57;;;;;;;5.35;100.00;101790.28;5050808;28;20619;-74
2022/03/15 01:37:16;;;;;;;16.87;12.47;;;;;;;4.98;100.00;101787.13;5050289;28;20179;-73
2022/03/15 01:39:42;;;;;;;21.47;13.87;;;;;;;4.61;100.00;101791.22;5050539;28;20182;-72
2022/03/15 01:42:07;;;;;;;19.13;13.37;;;;;;;4.42;100.00;101785.16;5050310;28;20626;-72
2022/03/15 01:44:33;;;;;;;14.80;12.77;;;;;;;4.15;100.00;101777.50;5050471;28;20545;-72
2022/03/15 01:46:59;;;;;;;15.40;12.43;;;;;;;4.02;100.00;101774.22;5050046;28;20540;-73
2022/03/15 01:49:25;;;;;;;15.10;12.97;;;;;;;3.95;100.00;101776.22;5050145;28;20270;-72
2022/03/15 01:51:51;;;;;;;17.17;12.90;;;;;;;3.64;100.00;101767.38;5050305;28;20175;-73
2022/03/15 01:54:20;;;;;;;19.57;13.33;;;;;;;3.54;100.00;101754.44;5050386;28;20638;-74
2022/03/15 01:56:45;;;;;;;16.40;13.33;;;;;;;3.45;100.00;101755.00;5050512;28;20241;-73
2022/03/15 01:59:13;;;;;;;19.83;13.30;;;;;;;3.68;100.00;101752.34;5049803;28;20635;-72
2022/03/15 02:01:39;;;;;;;19.87;14.40;;;;;;;3.51;100.00;101749.50;5050508;28;20179;-73
2022/03/15 02:04:05;;;;;;;15.87;12.67;;;;;;;3.54;100.00;101749.03;5050264;28;20394;-72
2022/03/15 02:06:34;;;;;;;17.50;12.50;;;;;;;3.35;100.00;101746.66;5050141;28;20580;-74
2022/03/15 02:09:06;;;;;;;19.83;13.80;;;;;;;3.57;100.00;101753.97;5050059;28;20230;-75
2022/03/15 02:11:34;;;;;;;23.33;13.77;;;;;;;3.83;100.00;101744.59;5050220;28;20619;-72
2022/03/15 02:14:00;;;;;;;21.87;13.33;;;;;;;3.87;100.00;101750.34;5049865;28;20182;-72
2022/03/15 02:16:25;;;;;;;14.47;11.53;;;;;;;3.86;100.00;101746.00;5050018;28;20180;-72
2022/03/15 02:18:50;;;;;;;17.40;10.70;;;;;;;3.79;100.00;101756.13;5049962;28;20215;-72
2022/03/15 02:21:16;;;;;;;14.23;12.67;;;;;;;3.72;100.00;101755.41;5050120;28;20258;-72
2022/03/15 02:23:41;;;;;;;16.70;12.30;;;;;;;3.54;100.00;101759.84;5052081;28;20228;-72
2022/03/15 02:26:07;;;;;;;19.13;10.73;;;;;;;3.46;100.00;101743.97;5053705;28;20183;-74
2022/03/15 02:28:32;;;;;;;14.67;10.80;;;;;;;3.43;100.00;101751.72;5053388;28;20260;-74
2022/03/15 02:30:57;;;;;;;13.37;10.57;;;;;;;3.45;100.00;101744.19;5053632;28;20649;-74
2022/03/15 02:33:23;;;;;;;16.40;11.00;;;;;;;3.39;100.00;101737.84;5053630;28;20175;-74
2022/03/15 02:35:49;;;;;;;16.40;11.23;;;;;;;3.49;100.00;101740.81;5053481;28;20190;-74
2022/03/15 02:38:14;;;;;;;18.37;10.90;;;;;;;3.61;100.00;101738.09;5053048;28;20175;-74
2022/03/15 02:40:40;;;;;;;16.30;11.47;;;;;;;3.73;100.00;101724.59;5053734;28;20175;-74
2022/03/15 02:43:06;;;;;;;15.83;10.97;;;;;;;3.81;100.00;101713.47;5053472;28;20175;-74
2022/03/15 02:45:31;;;;;;;18.70;11.03;;;;;;;3.80;100.00;101717.22;5053582;28;20661;-73
2022/03/15 02:47:56;;;;;;;19.97;11.40;;;;;;;3.68;100.00;101717.22;5053112;28;20245;-72
2022/03/15 02:50:23;;;;;;;14.43;10.10;;;;;;;3.55;100.00;101712.03;5053585;28;20182;-72
2022/03/15 02:52:48;;;;;;;21.97;12.37;;;;;;;3.46;100.00;101713.41;5053262;28;20174;-72
2022/03/15 02:55:16;;;;;;;20.80;12.77;;;;;;;3.40;100.00;101719.75;5052977;28;20209;-73
2022/03/15 02:57:44;;;;;;;15.70;11.80;;;;;;;3.41;100.00;101719.53;5052922;28;20583;-74
2022/03/15 03:00:10;;;;;;;14.73;12.03;;;;;;;3.35;100.00;101715.06;5034618;28;20167;-73
2022/03/15 03:02:36;;;;;;;15.33;11.60;;;;;;;3.21;100.00;101721.72;5052592;28;20225;-74
2022/03/15 03:05:01;;;;;;;18.73;11.10;;;;;;;3.18;100.00;101714.06;5052551;28;20521;-75
2022/03/15 03:07:27;;;;;;;16.27;12.23;;;;;;;3.07;100.00;101706.78;5052133;28;20214;-74
2022/03/15 03:09:52;;;;;;;17.63;12.30;;;;;;;3.20;100.00;101706.59;5052721;28;20175;-75
2022/03/15 03:12:18;;;;;;;18.77;12.97;;;;;;;3.41;100.00;101706.03;5052488;28;20581;-72
2022/03/15 03:14:47;;;;;;;13.67;11.83;;;;;;;3.48;100.00;101717.56;5052402;28;20175;-72
2022/03/15 03:17:12;;;;;;;17.40;12.37;;;;;;;3.50;100.00;101707.34;5052121;28;20240;-72
2022/03/15 03:19:38;;;;;;;22.37;12.93;;;;;;;3.61;100.00;101710.25;5052361;28;20629;-72
2022/03/15 03:22:05;;;;;;;17.47;11.50;;;;;;;3.61;100.00;101702.97;5034295;28;20535;-73
2022/03/15 03:24:30;;;;;;;13.90;11.73;;;;;;;3.49;100.00;101700.28;5052525;28;20176;-72
2022/03/15 03:26:56;;;;;;;22.47;12.67;;;;;;;3.65;100.00;101703.34;5051878;28;20613;-73
2022/03/15 03:29:22;;;;;;;17.83;11.70;;;;;;;3.68;100.00;101702.88;5051966;28;20194;-73
2022/03/15 03:31:47;;;;;;;15.60;10.50;;;;;;;3.66;100.00;101703.13;5052043;28;20183;-73
2022/03/15 03:34:12;;;;;;;17.33;11.10;;;;;;;3.68;100.00;101702.88;5050940;28;20183;-75
2022/03/15 03:36:38;;;;;;;19.10;11.80;;;;;;;3.39;100.00;101701.91;5051580;28;20181;-73
2022/03/15 03:39:05;;;;;;;17.50;11.27;;;;;;;3.44;100.00;101702.84;5051783;28;20171;-73
2022/03/15 03:41:30;;;;;;;16.57;10.60;;;;;;;3.43;100.00;101703.09;5051869;28;20209;-74
2022/03/15 03:43:56;;;;;;;15.37;10.97;;;;;;;3.34;100.00;101707.19;5051872;28;20254;-74
2022/03/15 03:46:22;;;;;;;19.23;11.33;;;;;;;3.26;100.00;101700.25;5051621;28;20572;-75
2022/03/15 03:48:50;;;;;;;13.23;10.43;;;;;;;3.21;100.00;101705.53;5051621;28;20321;-74
2022/03/15 03:51:15;;;;;;;14.03;10.93;;;;;;;3.24;100.00;101705.06;5052020;28;20226;-74
2022/03/15 03:53:40;;;;;;;15.23;10.80;;;;;;;3.24;100.00;101710.47;5051805;28;20630;-74
2022/03/15 03:56:06;;;;;;;14.17;11.70;;;;;;;3.23;100.00;101712.34;5051494;28;20172;-74
2022/03/15 03:58:32;;;;;;;16.43;11.73;;;;;;;3.17;100.00;101709.72;5051479;28;20232;-76
2022/03/15 04:00:57;;;;;;;15.37;11.37;;;;;;;3.09;100.00;101705.50;5051132;28;20180;-74
2022/03/15 04:03:24;;;;;;;12.87;10.17;;;;;;;3.02;100.00;101703.94;5051473;28;20535;-75
2022/03/15 04:05:51;;;;;;;15.27;11.70;;;;;;;3.06;100.00;101697.03;5051303;28;20179;-76
2022/03/15 04:08:17;;;;;;;13.57;12.17;;;;;;;3.12;100.00;101702.31;5051271;28;20492;-78
2022/03/15 04:10:45;;;;;;;16.43;10.83;;;;;;;3.08;100.00;101701.16;5051265;28;20175;-74
2022/03/15 04:13:11;;;;;;;13.60;10.07;;;;;;;3.12;100.00;101696.09;5051727;28;20274;-75
2022/03/15 04:15:37;;;;;;;15.53;11.47;;;;;;;3.08;100.00;101700.31;5051469;28;20194;-75
2022/03/15 04:18:03;;;;;;;14.03;11.70;;;;;;;3.18;100.00;101695.16;5051265;28;20559;-74
2022/03/15 04:20:29;;;;;;;14.63;11.60;;;;;;;3.22;100.00;101696.38;5051197;28;20183;-76
2022/03/15 04:22:54;;;;;;;14.87;11.37;;;;;;;3.11;100.00;101687.19;5051182;28;20258;-75
2022/03/15 04:25:20;;;;;;;18.60;11.63;;;;;;;3.05;100.00;101695.38;5051064;28;20175;-74
2022/03/15 04:27:45;;;;;;;18.20;12.10;;;;;;;2.96;100.00;101684.91;5049848;28;20214;-77
2022/03/15 04:30:11;;;;;;;11.57;9.67;;;;;;;2.82;100.00;101702.34;5049562;28;20179;-75
2022/03/15 04:32:37;;;;;;;17.27;10.13;;;;;;;2.77;100.00;101694.13;5050643;28;20171;-77
2022/03/15 04:35:02;;;;;;;13.17;9.53;;;;;;;2.75;100.00;101690.84;5050742;28;20718;-74
2022/03/15 04:37:28;;;;;;;12.73;10.70;;;;;;;2.81;100.00;101691.78;5050460;28;20183;-75
2022/03/15 04:39:53;;;;;;;14.47;11.27;;;;;;;2.90;100.00;101688.53;5050679;28;20588;-75
2022/03/15 04:42:19;;;;;;;14.50;11.03;;;;;;;2.87;100.00;101683.56;5050598;28;20171;-75
2022/03/15 04:44:44;;;;;;;20.20;11.97;;;;;;;2.81;100.00;101684.50;5049974;28;20266;-77
2022/03/15 04:47:10;;;;;;;14.63;10.87;;;;;;;2.95;100.00;101682.44;5049943;28;20258;-74
2022/03/15 04:49:35;;;;;;;19.13;11.43;;;;;;;2.99;100.00;101683.63;5050753;28;20202;-76
2022/03/15 04:52:02;;;;;;;21.77;13.53;;;;;;;2.97;100.00;101686.56;5050626;28;20175;-74
2022/03/15 04:54:28;;;;;;;18.67;12.23;;;;;;;3.04;100.00;101680.22;5050714;28;20217;-74
2022/03/15 04:56:54;;;;;;;20.93;13.63;;;;;;;3.06;100.00;101683.53;5050333;28;20227;-72
2022/03/15 04:59:19;;;;;;;27.60;16.80;;;;;;;3.05;100.00;101679.19;5050465;28;20210;-74
2022/03/15 05:01:44;;;;;;;30.23;17.00;;;;;;;2.84;100.00;101681.34;5050460;28;20171;-75
2022/03/15 05:04:10;;;;;;;20.40;14.60;;;;;;;3.06;100.00;101686.25;5050721;28;20614;-75
2022/03/15 05:06:38;;;;;;;38.63;19.57;;;;;;;3.02;100.00;101680.44;5050383;28;20206;-76
2022/03/15 05:09:03;;;;;;;33.47;18.60;;;;;;;3.11;100.00;101689.06;5050238;28;20302;-73
2022/03/15 05:11:29;;;;;;;21.70;15.80;;;;;;;3.18;100.00;101684.34;5050327;28;20167;-72
2022/03/15 05:13:54;;;;;;;29.93;18.33;;;;;;;3.21;100.00;101683.91;5050488;28;20197;-75
2022/03/15 05:16:22;;;;;;;29.80;18.93;;;;;;;3.16;100.00;101686.47;5050239;28;20179;-74
2022/03/15 05:18:53;;;;;;;26.03;16.20;;;;;;;3.07;100.00;101680.59;5050111;28;20210;-77
2022/03/15 05:21:21;;;;;;;22.63;15.07;;;;;;;2.95;100.00;101688.66;5050306;28;20172;-75
2022/03/15 05:23:47;;;;;;;20.03;13.67;;;;;;;2.92;100.00;101697.22;5050290;28;20174;-76
2022/03/15 05:26:14;;;;;;;20.70;13.47;;;;;;;2.97;100.00;101700.03;5050214;28;20205;-74
2022/03/15 05:28:40;;;;;;;17.23;12.87;;;;;;;3.02;100.00;101695.81;5049556;28;20221;-74
2022/03/15 05:31:05;;;;;;;16.23;11.80;;;;;;;2.83;100.00;101698.59;5050134;28;20474;-76
2022/03/15 05:33:31;;;;;;;16.40;12.87;;;;;;;2.68;100.00;101696.31;5048910;28;20383;-75
2022/03/15 05:35:57;;;;;;;22.47;14.70;;;;;;;2.67;100.00;101696.53;5050111;28;20182;-71
2022/03/15 05:38:23;;;;;;;22.90;13.77;;;;;;;2.64;100.00;101694.28;5049919;28;20187;-74
2022/03/15 05:40:49;;;;;;;25.27;14.60;;;;;;;2.81;100.00;101689.91;5050086;28;20183;-72
2022/03/15 05:43:14;;;;;;;21.20;16.27;;;;;;;2.70;100.00;101690.66;5049918;28;20236;-75
2022/03/15 05:45:40;;;;;;;22.57;14.50;;;;;;;2.82;100.00;101693.41;5050010;28;20230;-74
2022/03/15 05:48:06;;;;;;;20.40;14.00;;;;;;;2.92;100.00;101686.44;5049721;28;20701;-76
2022/03/15 05:50:32;;;;;;;15.13;12.43;;;;;;;2.79;100.00;101691.19;5050222;28;20186;-74
2022/03/15 05:53:03;;;;;;;18.27;11.40;;;;;;;2.74;100.00;101693.72;5048610;28;20171;-74
2022/03/15 05:55:29;;;;;;;19.50;13.03;;;;;;;2.60;100.00;101693.94;5049989;28;20215;-74
2022/03/15 05:57:55;;;;;;;16.77;12.50;;;;;;;2.59;100.00;101699.53;5050772;28;20167;-75
2022/03/15 06:00:20;;;;;;;20.07;13.23;;;;;;;2.51;100.00;101703.38;5051364;28;20354;-74
2022/03/15 06:02:46;;;;;;;17.80;12.77;;;;;;;2.54;100.00;101697.53;5048883;28;20175;-75
2022/03/15 06:05:11;;;;;;;17.40;13.13;;;;;;;2.66;100.00;101698.41;5054042;28;20365;-72
2022/03/15 06:07:47;;;;;;;18.20;13.03;;;;;;;2.90;100.00;101698.50;5038150;28;20277;-72
2022/03/15 06:10:15;;;;;;;17.50;13.03;;;;;;;2.90;100.00;101701.22;5045060;28;20259;-72
2022/03/15 06:12:41;;;;;;;24.13;13.43;;;;;;;2.85;100.00;101709.97;5040311;28;20643;-76
2022/03/15 06:15:06;;;;;;;20.40;12.50;;;;;;;2.80;100.00;101704.44;5047637;28;20180;-72
2022/03/15 06:17:32;;;;;;;24.23;13.73;;;;;;;2.79;100.00;101713.59;5050946;28;20183;-75
2022/03/15 06:19:58;;;;;;;15.63;11.63;;;;;;;2.78;100.00;101711.13;5053990;28;20582;-75
2022/03/15 06:22:23;;;;;;;14.37;11.33;;;;;;;2.83;100.00;101709.38;5053911;28;20178;-73
2022/03/15 06:24:49;;;;;;;19.67;14.33;;;;;;;2.84;100.00;101724.53;5055012;28;20175;-74
2022/03/15 06:27:14;;;;;;;17.87;13.00;;;;;;;2.91;100.00;101716.34;5056876;28;20727;-74
2022/03/15 06:29:40;;;;;;;19.80;12.93;;;;;;;2.95;100.00;101718.34;5054262;28;20267;-74
2022/03/15 06:32:07;;;;;;;17.07;11.40;;;;;;;3.04;100.00;101723.41;5051511;28;20638;-74
2022/03/15 06:34:33;;;;;;;19.30;11.43;;;;;;;3.04;100.00;101723.41;5054011;28;20203;-74
2022/03/15 06:36:59;;;;;;;14.20;10.60;;;;;;;3.02;100.00;101720.13;5053669;28;20578;-74
2022/03/15 06:39:24;;;;;;;14.37;11.33;;;;;;;3.04;100.00;101718.00;5053850;28;20185;-74
2022/03/15 06:41:50;;;;;;;16.43;11.50;;;;;;;3.11;100.00;101716.88;5053950;28;20260;-74
2022/03/15 06:44:16;;;;;;;19.73;11.97;;;;;;;3.04;100.00;101716.16;5053809;28;20179;-74
2022/03/15 06:46:41;;;;;;;20.97;12.57;;;;;;;3.08;100.00;101711.94;5053874;28;20190;-76
2022/03/15 06:49:07;;;;;;;23.10;13.00;;;;;;;3.15;100.00;101703.72;5053955;28;20195;-72
2022/03/15 06:51:33;;;;;;;23.13;14.60;;;;;;;3.07;100.00;101698.69;5053960;28;20172;-72
2022/03/15 06:53:58;;;;;;;22.67;13.30;;;;;;;3.11;100.00;101699.84;5035852;28;20190;-72
2022/03/15 06:56:23;;;;;;;22.93;16.63;;;;;;;3.21;100.00;101692.84;5053649;28;20175;-73
2022/03/15 06:58:50;;;;;;;25.37;17.90;;;;;;;3.28;100.00;101700.81;5053138;28;20186;-73
2022/03/15 07:01:16;;;;;;;20.83;13.90;;;;;;;3.23;100.00;101695.31;5053374;28;20176;-75
2022/03/15 07:03:41;;;;;;;20.87;14.70;;;;;;;3.24;100.00;101702.34;5053579;28;20577;-72
2022/03/15 07:06:06;;;;;;;29.67;18.77;;;;;;;3.28;100.00;101696.25;5053590;28;20171;-72
2022/03/15 07:08:32;;;;;;;21.33;16.57;;;;;;;3.47;100.00;101705.09;5052830;28;20442;-73
2022/03/15 07:10:57;;;;;;;25.57;16.00;;;;;;;3.49;100.00;101694.88;5053212;28;20254;-72
2022/03/15 07:13:22;;;;;;;23.33;14.73;;;;;;;3.45;100.00;101696.38;5053579;28;20171;-72
2022/03/15 07:15:48;;;;;;;20.50;14.00;;;;;;;3.42;100.00;101698.75;5053236;28;20182;-75
2022/03/15 07:18:15;;;;;;;20.17;14.80;;;;;;;3.57;100.00;101704.50;5053138;28;20217;-72
2022/03/15 07:20:41;;;;;;;21.17;13.40;;;;;;;3.85;100.00;101696.53;5053502;28;20254;-73
2022/03/15 07:23:06;;;;;;;18.57;13.60;;;;;;;4.06;100.00;101702.41;5052773;28;20258;-72
2022/03/15 07:25:32;;;;;;;19.13;13.17;;;;;;;4.17;100.00;101694.25;5053084;28;20166;-72
2022/03/15 07:27:57;;;;;;;17.40;12.27;;;;;;;4.25;100.00;101700.38;5052710;28;20670;-73
2022/03/15 07:30:22;;;;;;;24.40;13.70;;;;;;;4.14;100.00;101697.44;5053384;28;20159;-72
2022/03/15 07:32:48;;;;;;;19.43;13.30;;;;;;;4.36;100.00;101700.34;5052872;28;20634;-72
2022/03/15 07:35:14;;;;;;;17.40;13.67;;;;;;;4.51;100.00;101699.03;5052889;28;20218;-72
2022/03/15 07:37:58;;;;;;;18.33;13.17;;;;;;;4.61;100.00;101705.44;5052810;28;20167;-73
2022/03/15 07:40:25;;;;;;;17.00;12.33;;;;;;;4.72;100.00;101703.75;5052861;28;20166;-73
2022/03/15 07:42:51;;;;;;;16.00;13.60;;;;;;;4.73;100.00;101695.41;5052876;28;20213;-72
2022/03/15 07:45:17;;;;;;;18.17;13.67;;;;;;;4.65;100.00;101698.50;5052525;28;20182;-73
2022/03/15 07:47:42;;;;;;;18.20;13.50;;;;;;;4.87;100.00;101695.09;5052288;28;20630;-73
2022/03/15 07:50:08;;;;;;;17.50;14.27;;;;;;;4.88;100.00;101692.16;5052381;28;20175;-72
2022/03/15 07:52:33;;;;;;;23.27;14.63;;;;;;;4.80;100.00;101686.31;5052623;28;20258;-75
2022/03/15 07:54:59;;;;;;;19.20;13.73;;;;;;;4.85;100.00;101695.34;5052444;28;20623;-73
2022/03/15 07:57:25;;;;;;;20.87;14.67;;;;;;;4.82;100.00;101692.31;5052699;28;20178;-72
2022/03/15 07:59:50;;;;;;;17.47;14.00;;;;;;;5.03;100.00;101691.59;5052368;28;20175;-72
2022/03/15 08:02:16;;;;;;;21.43;14.87;;;;;;;5.12;100.00;101687.44;5052486;28;20177;-72
2022/03/15 08:04:42;;;;;;;22.10;13.97;;;;;;;5.19;100.00;101688.09;5052466;28;20202;-73
2022/03/15 08:07:08;;;;;;;21.70;15.77;;;;;;;5.24;100.00;101687.38;5052238;28;20183;-72
2022/03/15 08:09:34;;;;;;;20.00;14.07;;;;;;;5.22;100.00;101679.50;5052272;28;20229;-75
2022/03/15 08:12:00;;;;;;;18.73;13.67;;;;;;;5.37;100.00;101690.59;5052545;28;20186;-74
2022/03/15 08:14:25;;;;;;;22.10;15.03;;;;;;;5.48;100.00;101682.59;5051755;28;20175;-75
2022/03/15 08:16:50;;;;;;;19.37;14.43;;;;;;;5.53;100.00;101672.69;5051830;28;20172;-78
2022/03/15 08:19:16;;;;;;;17.37;13.67;;;;;;;5.62;100.00;101663.03;5052152;28;20258;-72
2022/03/15 08:21:41;;;;;;;19.77;14.33;;;;;;;5.69;100.00;101665.59;5051357;28;20646;-72
2022/03/15 08:24:07;;;;;;;20.23;14.23;;;;;;;5.75;100.00;101659.16;5052027;28;20626;-72
2022/03/15 08:26:32;;;;;;;20.40;14.07;;;;;;;5.79;100.00;101664.94;5051917;28;20206;-72
2022/03/15 08:28:58;;;;;;;19.67;14.93;;;;;;;5.84;100.00;101663.09;5051488;28;20293;-71
2022/03/15 08:31:23;;;;;;;18.50;13.07;;;;;;;5.92;100.00;101665.41;5051292;28;20183;-72
2022/03/15 08:33:48;;;;;;;20.10;14.10;;;;;;;6.04;100.00;101656.34;5051299;28;20167;-72
2022/03/15 08:36:14;;;;;;;17.60;13.20;;;;;;;6.15;100.00;101663.56;5051207;28;20752;-72
2022/03/15 08:38:41;;;;;;;14.60;12.73;;;;;;;6.35;100.00;101658.38;5049375;28;20199;-72
2022/03/15 08:41:06;;;;;;;16.07;12.93;;;;;;;6.38;100.00;101657.88;5051109;28;20175;-72
2022/03/15 08:43:32;;;;;;;16.07;12.80;;;;;;;6.47;100.00;101659.06;5050860;28;20262;-73
2022/03/15 08:45:58;;;;;;;14.63;12.40;;;;;;;6.50;100.00;101655.00;5050900;28;20440;-75
2022/03/15 08:48:23;;;;;;;18.77;13.20;;;;;;;6.61;100.00;101653.22;5050817;28;20207;-71
2022/03/15 08:50:49;;;;;;;13.07;11.67;;;;;;;6.64;100.00;101653.53;5050945;28;20228;-72
2022/03/15 08:53:14;;;;;;;15.73;13.27;;;;;;;6.73;100.00;101643.88;5050857;28;20210;-72
2022/03/15 08:55:40;;;;;;;16.73;12.27;;;;;;;6.82;100.00;101644.25;5050833;28;20167;-71
2022/03/15 08:58:06;;;;;;;14.63;10.90;;;;;;;6.89;100.00;101646.72;5050522;28;20183;-73
2022/03/15 09:00:31;;;;;;;12.30;11.00;;;;;;;7.03;100.00;101642.53;5032844;28;20186;-72
2022/03/15 09:02:57;;;;;;;11.80;10.60;;;;;;;7.17;100.00;101643.72;5051078;28;20190;-72
2022/03/15 09:05:22;;;;;;;12.67;11.40;;;;;;;7.29;100.00;101635.41;5050757;28;20481;-72
2022/03/15 09:07:50;;;;;;;10.90;9.80;;;;;;;7.45;100.00;101637.16;5050457;28;20730;-72
2022/03/15 09:10:15;;;;;;;7.97;6.90;;;;;;;7.59;100.00;101630.19;5050695;28;20183;-72
2022/03/15 09:12:41;;;;;;;6.47;5.87;;;;;;;7.83;100.00;101635.22;5050458;28;20186;-72
2022/03/15 09:15:06;;;;;;;6.33;5.70;;;;;;;8.03;100.00;101627.97;5050785;28;20252;-72
2022/03/15 09:17:32;;;;;;;6.73;6.13;;;;;;;8.24;100.00;101631.59;5050375;28;20733;-72
2022/03/15 09:19:57;;;;;;;6.47;5.90;;;;;;;8.29;97.14;101622.66;5048513;28;20193;-74
2022/03/15 09:22:22;;;;;;;6.83;4.50;;;;;;;8.44;94.54;101630.06;5050315;28;20575;-72
2022/03/15 09:24:48;;;;;;;6.53;5.87;;;;;;;8.51;92.81;101623.28;5040537;28;20635;-72
2022/03/15 09:27:13;;;;;;;5.97;5.37;;;;;;;8.55;91.91;101624.41;5050201;28;20179;-72
2022/03/15 09:29:39;;;;;;;7.40;6.13;;;;;;;8.64;90.86;101621.94;5050467;28;20182;-72
2022/03/15 09:32:05;;;;;;;7.40;5.47;;;;;;;8.75;91.04;101618.16;5051722;28;20262;-73
2022/03/15 09:34:30;;;;;;;7.50;5.67;;;;;;;8.84;91.83;101622.00;5054576;28;20217;-72
2022/03/15 09:36:59;;;;;;;10.37;5.27;;;;;;;8.89;91.46;101613.00;5054371;28;20229;-72
2022/03/15 09:39:25;;;;;;;6.13;4.90;;;;;;;8.90;90.74;101610.00;5054191;28;20207;-72
2022/03/15 09:41:54;;;;;;;5.67;5.13;;;;;;;9.01;89.57;101607.28;5053281;28;20232;-72
2022/03/15 09:44:20;;;;;;;6.00;5.50;;;;;;;9.09;88.28;101601.28;5054418;28;20171;-73
2022/03/15 09:46:51;;;;;;;5.97;5.47;;;;;;;9.03;89.12;101605.09;5054256;28;20179;-71
2022/03/15 09:49:18;;;;;;;6.53;5.37;;;;;;;9.05;88.73;101600.19;5054253;28;20299;-72
2022/03/15 09:51:45;;;;;;;7.20;4.83;;;;;;;9.19;86.88;101602.09;5054188;28;20596;-73
2022/03/15 09:54:12;;;;;;;7.13;4.40;;;;;;;9.22;86.10;101601.53;5054196;28;20203;-72
2022/03/15 09:56:41;;;;;;;4.57;4.17;;;;;;;9.23;85.04;101600.44;5054551;28;20171;-72
2022/03/15 09:59:15;;;;;;;5.73;4.13;;;;;;;9.36;83.85;101603.72;5054084;28;20217;-76
2022/03/15 10:01:42;;;;;;;4.97;3.83;;;;;;;9.42;83.31;101589.81;5054112;28;20527;-76
2022/03/15 10:04:08;;;;;;;5.67;4.17;;;;;;;9.43;82.50;101594.19;5053694;28;20167;-72
2022/03/15 10:06:36;;;;;;;3.10;2.90;;;;;;;9.45;81.55;101594.72;5049782;28;20304;-72
2022/03/15 10:09:01;;;;;;;3.83;3.53;;;;;;;9.45;80.97;101594.72;5053528;28;20210;-72
2022/03/15 10:11:27;;;;;;;4.20;3.80;;;;;;;9.51;81.09;101590.06;5046145;28;20179;-72
2022/03/15 10:13:53;;;;;;;4.97;3.57;;;;;;;9.70;81.31;101588.41;5041787;28;20234;-72
2022/03/15 10:16:18;;;;;;;3.90;3.60;;;;;;;9.67;80.10;101588.91;5044916;28;20175;-72
2022/03/15 10:18:55;;;;;;;3.53;3.20;;;;;;;9.63;79.72;101585.13;5051267;28;20676;-73
2022/03/15 10:21:24;;;;;;;5.03;4.53;;;;;;;9.61;80.26;101583.78;5045741;28;20631;-72
2022/03/15 10:23:57;;;;;;;4.93;4.07;;;;;;;9.67;80.47;101575.28;5053138;28;20186;-72
2022/03/15 10:26:27;;;;;;;4.27;3.87;;;;;;;9.82;80.51;101577.97;5045985;28;20290;-72
2022/03/15 10:28:54;;;;;;;5.33;4.70;;;;;;;9.90;81.07;101573.84;5037904;28;20225;-72
2022/03/15 10:31:24;;;;;;;6.30;4.87;;;;;;;9.95;81.10;101560.16;5052770;28;20171;-72
2022/03/15 10:33:54;;;;;;;4.40;4.10;;;;;;;9.99;80.06;101574.09;5053079;28;20172;-72
2022/03/15 10:36:21;;;;;;;5.43;4.90;;;;;;;10.06;79.46;101572.69;5051532;28;20183;-76
2022/03/15 10:38:52;;;;;;;3.70;3.37;;;;;;;10.18;79.59;101569.63;5059253;28;20489;-72
2022/03/15 10:41:19;;;;;;;6.23;4.60;;;;;;;10.16;79.23;101569.09;5032144;28;20175;-72
2022/03/15 10:43:53;;;;;;;4.03;3.70;;;;;;;10.20;78.98;101566.63;5032377;28;20263;-72
2022/03/15 10:46:22;;;;;;;4.07;3.67;;;;;;;10.22;76.58;101562.53;5032808;28;20263;-72
2022/03/15 10:48:59;;;;;;;4.23;3.33;;;;;;;10.14;75.52;101569.38;5038402;28;20207;-74
2022/03/15 10:51:25;;;;;;;4.07;3.57;;;;;;;10.23;76.11;101561.44;5051206;28;20190;-72
2022/03/15 10:53:50;;;;;;;4.00;3.60;;;;;;;10.34;76.18;101559.47;5051819;28;20570;-72
2022/03/15 10:56:23;;;;;;;3.57;3.23;;;;;;;10.30;75.89;101555.66;5052694;28;20179;-72
2022/03/15 10:58:52;;;;;;;3.57;3.27;;;;;;;10.31;76.38;101560.84;5052466;28;20207;-74
2022/03/15 11:01:22;;;;;;;6.90;3.00;;;;;;;10.32;76.01;101554.28;5050471;28;20208;-72
2022/03/15 11:03:54;;;;;;;3.90;3.60;;;;;;;10.21;76.25;101547.25;5048558;28;20198;-72
2022/03/15 11:06:37;;;;;;;3.63;3.33;;;;;;;10.41;75.17;101541.69;5051517;28;20562;-76
2022/03/15 11:09:21;;;;;;;4.20;2.97;;;;;;;10.30;75.01;101534.63;5051532;28;20215;-75